createdAt,value
2023-04-01T00:00:05.644Z,4.17
2023-04-01T00:02:33.558Z,3.90
2023-04-01T00:05:01.954Z,4.03
2023-04-01T00:07:30.622Z,3.77
2023-04-01T00:10:01.059Z,3.50
2023-04-01T00:12:28.892Z,4.13
2023-04-01T00:14:56.731Z,3.60
2023-04-01T00:17:25.152Z,3.30
2023-04-01T00:19:53.181Z,3.60
2023-04-01T00:22:21.717Z,3.30
2023-04-01T00:24:50.040Z,3.27
2023-04-01T00:27:19.898Z,3.60
2023-04-01T00:29:48.578Z,3.50
2023-04-01T00:32:16.552Z,3.77
2023-04-01T00:34:45.386Z,3.20
2023-04-01T00:37:13.515Z,3.80
2023-04-01T00:39:41.522Z,4.43
2023-04-01T00:42:12.413Z,6.73
2023-04-01T00:44:41.745Z,6.77
2023-04-01T00:47:10.065Z,8.20
2023-04-01T00:49:39.476Z,8.60
2023-04-01T00:52:07.702Z,10.50
2023-04-01T00:54:35.790Z,11.53
2023-04-01T00:57:05.795Z,11.00
2023-04-01T00:59:34.923Z,11.47
2023-04-01T01:02:04.885Z,13.33
2023-04-01T01:04:33.660Z,12.97
2023-04-01T01:07:10.730Z,12.80
2023-04-01T01:09:43.706Z,12.93
2023-04-01T01:12:13.956Z,13.50
2023-04-01T01:14:51.636Z,15.00
2023-04-01T01:17:24.862Z,13.87
2023-04-01T01:20:12.793Z,14.07
2023-04-01T01:22:59.134Z,14.20
2023-04-01T01:25:35.293Z,13.60
2023-04-01T01:28:13.752Z,13.57
2023-04-01T01:30:44.411Z,13.30
2023-04-01T01:33:18.633Z,14.37
2023-04-01T01:35:48.415Z,14.60
2023-04-01T01:38:17.548Z,15.37
2023-04-01T01:40:47.046Z,13.67
2023-04-01T01:43:16.383Z,14.70
2023-04-01T01:45:46.757Z,14.90
2023-04-01T01:48:14.510Z,14.50
2023-04-01T01:50:42.766Z,15.00
2023-04-01T01:53:13.153Z,13.80
2023-04-01T01:55:42.243Z,14.73
2023-04-01T01:58:12.082Z,14.33
2023-04-01T02:00:40.200Z,13.83
2023-04-01T02:03:08.359Z,14.60
2023-04-01T02:05:36.764Z,12.80
2023-04-01T02:08:07.480Z,14.30
2023-04-01T02:10:39.177Z,12.10
2023-04-01T02:13:09.982Z,13.10
2023-04-01T02:15:40.007Z,13.03
2023-04-01T02:18:08.144Z,12.50
2023-04-01T02:20:36.759Z,12.37
2023-04-01T02:23:04.729Z,12.50
2023-04-01T02:25:36.043Z,12.30
2023-04-01T02:28:05.758Z,12.40
2023-04-01T02:30:34.056Z,11.50
2023-04-01T02:33:01.856Z,12.03
2023-04-01T02:35:29.686Z,11.10
2023-04-01T02:37:57.472Z,10.90
2023-04-01T02:40:25.946Z,11.77
2023-04-01T02:42:53.904Z,11.37
2023-04-01T02:45:23.430Z,10.87
2023-04-01T02:47:51.629Z,12.03
2023-04-01T02:50:19.951Z,10.63
2023-04-01T02:52:47.717Z,10.20
2023-04-01T02:55:15.745Z,10.07
2023-04-01T02:57:43.911Z,10.67
2023-04-01T03:00:12.871Z,10.40
2023-04-01T03:02:43.099Z,10.00
2023-04-01T03:05:11.199Z,9.20
2023-04-01T03:07:39.476Z,9.77
2023-04-01T03:10:08.659Z,10.30
2023-04-01T03:12:36.975Z,10.07
2023-04-01T03:15:10.922Z,9.33
2023-04-01T03:17:41.533Z,9.00
2023-04-01T03:20:11.796Z,9.40
2023-04-01T03:22:41.553Z,9.00
2023-04-01T03:25:11.611Z,9.43
2023-04-01T03:27:39.893Z,8.63
2023-04-01T03:30:09.323Z,9.20
2023-04-01T03:32:37.589Z,8.87
2023-04-01T03:35:07.974Z,9.13
2023-04-01T03:37:36.060Z,8.30
2023-04-01T03:40:04.639Z,8.73
2023-04-01T03:42:33.741Z,8.43
2023-04-01T03:45:01.689Z,7.97
2023-04-01T03:47:29.977Z,8.00
2023-04-01T03:49:57.755Z,7.93
2023-04-01T03:52:27.707Z,7.40
2023-04-01T03:54:55.718Z,7.30
2023-04-01T03:57:23.753Z,7.93
2023-04-01T03:59:51.767Z,7.33
2023-04-01T04:02:20.129Z,7.13
2023-04-01T04:04:48.624Z,7.93
2023-04-01T04:07:16.964Z,7.80
2023-04-01T04:09:46.324Z,7.33
2023-04-01T04:12:14.067Z,7.10
2023-04-01T04:14:42.380Z,7.17
2023-04-01T04:17:14.739Z,6.90
2023-04-01T04:19:42.662Z,6.80
2023-04-01T04:22:10.767Z,6.40
2023-04-01T04:24:38.960Z,6.40
2023-04-01T04:27:08.762Z,6.90
2023-04-01T04:29:36.745Z,6.80
2023-04-01T04:32:05.139Z,6.53
2023-04-01T04:34:33.296Z,7.10
2023-04-01T04:37:01.443Z,6.80
2023-04-01T04:39:29.644Z,6.53
2023-04-01T04:41:57.379Z,6.40
2023-04-01T04:44:26.939Z,6.20
2023-04-01T04:46:57.115Z,6.30
2023-04-01T04:49:26.496Z,6.00
2023-04-01T04:51:54.728Z,5.87
2023-04-01T04:54:22.683Z,6.50
2023-04-01T04:56:50.688Z,5.90
2023-04-01T04:59:18.594Z,6.43
2023-04-01T05:01:48.381Z,6.10
2023-04-01T05:04:16.320Z,5.77
2023-04-01T05:06:45.227Z,6.07
2023-04-01T05:09:13.374Z,5.63
2023-04-01T05:11:41.250Z,6.10
2023-04-01T05:14:14.914Z,5.97
2023-04-01T05:16:43.238Z,6.17
2023-04-01T05:19:12.799Z,5.77
2023-04-01T05:21:41.161Z,5.13
2023-04-01T05:24:10.657Z,5.20
2023-04-01T05:26:38.829Z,5.50
2023-04-01T05:29:06.965Z,5.53
2023-04-01T05:31:34.906Z,5.47
2023-04-01T05:34:03.250Z,4.87
2023-04-01T05:36:32.743Z,4.80
2023-04-01T05:39:00.887Z,5.20
2023-04-01T05:41:28.942Z,5.20
2023-04-01T05:43:57.628Z,4.87
2023-04-01T05:46:25.760Z,5.47
2023-04-01T05:48:53.834Z,5.17
2023-04-01T05:51:21.764Z,5.17
2023-04-01T05:53:51.763Z,4.50
2023-04-01T05:56:19.800Z,5.40
2023-04-01T05:58:49.113Z,4.77
2023-04-01T06:01:17.093Z,5.10
2023-04-01T06:03:45.199Z,4.60
2023-04-01T06:06:16.909Z,4.20
2023-04-01T06:08:45.206Z,4.40
2023-04-01T06:11:21.318Z,4.57
2023-04-01T06:14:09.934Z,4.40
2023-04-01T06:16:44.548Z,4.43
2023-04-01T06:19:21.826Z,4.00
2023-04-01T06:22:11.200Z,4.70
2023-04-01T06:24:46.061Z,3.90
2023-04-01T06:27:20.775Z,4.50
2023-04-01T06:30:12.890Z,4.60
2023-04-01T06:32:51.829Z,4.53
2023-04-01T06:35:26.582Z,4.50
2023-04-01T06:38:21.455Z,3.83
2023-04-01T06:41:22.123Z,4.03
2023-04-01T06:43:56.789Z,4.20
2023-04-01T06:46:28.388Z,4.17
2023-04-01T06:49:05.563Z,4.07
2023-04-01T06:51:38.991Z,4.30
2023-04-01T06:54:08.410Z,3.87
2023-04-01T06:56:36.889Z,3.37
2023-04-01T06:59:07.837Z,3.27
2023-04-01T07:01:38.059Z,3.47
2023-04-01T07:04:08.278Z,3.97
2023-04-01T07:06:39.049Z,3.97
2023-04-01T07:09:08.495Z,3.53
2023-04-01T07:11:38.205Z,3.70
2023-04-01T07:14:10.739Z,4.00
2023-04-01T07:16:40.636Z,3.67
2023-04-01T07:19:10.889Z,3.63
2023-04-01T07:21:42.629Z,3.33
2023-04-01T07:24:12.435Z,3.03
2023-04-01T07:26:41.174Z,3.60
2023-04-01T07:29:13.980Z,3.90
2023-04-01T07:31:53.148Z,3.90
2023-04-01T07:34:24.294Z,3.50
2023-04-01T07:36:56.249Z,3.90
2023-04-01T07:39:31.441Z,3.73
2023-04-01T07:42:02.761Z,3.23
2023-04-01T07:44:36.072Z,3.60
2023-04-01T07:47:17.795Z,3.80
2023-04-01T07:49:51.769Z,3.57
2023-04-01T07:52:22.152Z,3.30
2023-04-01T07:54:51.923Z,3.57
2023-04-01T07:57:22.118Z,3.40
2023-04-01T07:59:57.360Z,3.97
2023-04-01T08:02:31.800Z,3.40
2023-04-01T08:05:05.629Z,3.87
2023-04-01T08:07:38.762Z,3.10
2023-04-01T08:10:13.571Z,3.23
2023-04-01T08:12:47.233Z,3.37
2023-04-01T08:15:22.553Z,3.03
2023-04-01T08:17:56.407Z,3.07
2023-04-01T08:20:29.391Z,2.97
2023-04-01T08:23:02.416Z,2.77
2023-04-01T08:25:31.592Z,3.50
2023-04-01T08:28:01.434Z,3.33
2023-04-01T08:30:36.142Z,2.90
2023-04-01T08:33:07.996Z,2.83
2023-04-01T08:35:40.623Z,2.83
2023-04-01T08:38:12.249Z,3.00
2023-04-01T08:41:00.385Z,2.90
2023-04-01T08:43:44.697Z,3.00
2023-04-01T08:46:45.067Z,3.00
2023-04-01T08:49:22.037Z,3.20
2023-04-01T08:52:08.947Z,2.87
2023-04-01T08:54:58.993Z,3.20
2023-04-01T08:57:38.706Z,2.90
2023-04-01T09:00:14.468Z,3.20
2023-04-01T09:03:22.413Z,2.80
2023-04-01T09:06:31.477Z,2.87
2023-04-01T09:09:21.206Z,2.73
2023-04-01T09:12:29.494Z,2.97
2023-04-01T09:15:37.052Z,2.90
2023-04-01T09:18:33.392Z,2.70
2023-04-01T09:21:30.860Z,2.90
2023-04-01T09:24:35.435Z,2.93
2023-04-01T09:27:08.819Z,2.47
2023-04-01T09:29:56.103Z,2.37
2023-04-01T09:32:38.344Z,2.67
2023-04-01T09:35:15.285Z,3.00
2023-04-01T09:37:54.464Z,3.00
2023-04-01T09:40:26.450Z,2.57
2023-04-01T09:43:09.625Z,2.47
2023-04-01T09:45:46.180Z,2.63
2023-04-01T09:48:24.040Z,2.30
2023-04-01T09:50:55.575Z,2.63
2023-04-01T09:53:38.045Z,2.53
2023-04-01T09:56:49.592Z,2.50
2023-04-01T09:59:55.664Z,3.07
2023-04-01T10:02:49.974Z,2.17
2023-04-01T10:05:44.202Z,2.80
2023-04-01T10:08:26.915Z,2.97
2023-04-01T10:11:47.812Z,2.73
2023-04-01T10:14:29.716Z,2.43
2023-04-01T10:17:30.691Z,2.03
2023-04-01T10:20:17.372Z,2.10
2023-04-01T10:23:19.287Z,2.80
2023-04-01T10:26:12.260Z,2.00
2023-04-01T10:28:57.076Z,1.90
2023-04-01T10:32:05.072Z,2.20
2023-04-01T10:34:50.930Z,2.13
2023-04-01T10:37:30.035Z,2.30
2023-04-01T10:40:24.196Z,1.87
2023-04-01T10:43:36.921Z,1.80
2023-04-01T10:46:38.383Z,1.77
2023-04-01T10:49:46.286Z,2.00
2023-04-01T10:52:44.543Z,1.83
2023-04-01T10:55:50.249Z,1.50
2023-04-01T10:58:55.587Z,1.90
2023-04-01T11:01:39.399Z,2.00
2023-04-01T11:04:54.139Z,1.80
2023-04-01T11:07:50.485Z,1.73
2023-04-01T11:11:12.512Z,1.93
2023-04-01T11:14:04.697Z,1.93
2023-04-01T11:17:00.769Z,1.70
2023-04-01T11:20:12.797Z,1.53
2023-04-01T11:22:59.243Z,1.80
2023-04-01T11:25:38.698Z,1.90
2023-04-01T11:28:18.884Z,1.70
2023-04-01T11:30:57.113Z,1.93
2023-04-01T11:33:25.651Z,1.70
2023-04-01T11:36:14.204Z,1.90
2023-04-01T11:38:52.102Z,1.63
2023-04-01T11:41:27.063Z,1.60
2023-04-01T11:44:02.723Z,1.87
2023-04-01T11:46:33.552Z,1.83
2023-04-01T11:49:06.378Z,1.83
2023-04-01T11:52:09.466Z,1.80
2023-04-01T11:54:53.730Z,1.80
2023-04-01T11:57:38.719Z,1.60
2023-04-01T12:00:22.037Z,2.10
2023-04-01T12:02:54.862Z,2.27
2023-04-01T12:05:28.525Z,2.20
2023-04-01T12:08:12.407Z,1.90
2023-04-01T12:10:42.776Z,2.03
2023-04-01T12:13:17.918Z,2.20
2023-04-01T12:15:56.237Z,2.03
2023-04-01T12:18:26.838Z,3.07
2023-04-01T12:20:57.903Z,2.07
2023-04-01T12:23:48.281Z,2.03
2023-04-01T12:26:28.417Z,2.10
2023-04-01T12:29:10.724Z,2.00
2023-04-01T12:31:44.250Z,2.00
2023-04-01T12:34:34.630Z,2.00
2023-04-01T12:37:07.282Z,2.23
2023-04-01T12:39:47.180Z,2.20
2023-04-01T12:42:20.943Z,2.40
2023-04-01T12:44:57.702Z,2.23
2023-04-01T12:47:41.630Z,2.57
2023-04-01T12:50:28.330Z,2.30
2023-04-01T12:53:13.181Z,2.10
2023-04-01T12:55:41.910Z,2.30
2023-04-01T12:58:44.040Z,2.10
2023-04-01T13:01:37.700Z,2.47
2023-04-01T13:04:22.812Z,2.30
2023-04-01T13:06:55.906Z,2.60
2023-04-01T13:09:30.343Z,2.20
2023-04-01T13:12:08.218Z,2.50
2023-04-01T13:14:49.784Z,2.20
2023-04-01T13:17:19.369Z,2.13
2023-04-01T13:20:01.963Z,2.37
2023-04-01T13:22:40.860Z,2.17
2023-04-01T13:25:11.611Z,2.30
2023-04-01T13:27:40.614Z,2.47
2023-04-01T13:30:23.886Z,2.40
2023-04-01T13:32:56.014Z,1.90
2023-04-01T13:35:35.221Z,2.60
2023-04-01T13:38:50.261Z,2.00
2023-04-01T13:41:24.513Z,2.30
2023-04-01T13:43:53.999Z,2.20
2023-04-01T13:46:41.845Z,2.27
2023-04-01T13:49:25.850Z,2.07
2023-04-01T13:52:11.019Z,2.40
2023-04-01T13:54:59.738Z,2.23
2023-04-01T13:57:39.265Z,2.50
2023-04-01T14:00:24.910Z,2.37
2023-04-01T14:03:15.055Z,2.37
2023-04-01T14:05:51.856Z,2.23
2023-04-01T14:08:28.142Z,2.40
2023-04-01T14:11:01.710Z,2.20
2023-04-01T14:13:35.164Z,2.20
2023-04-01T14:16:32.250Z,2.13
2023-04-01T14:19:14.714Z,2.20
2023-04-01T14:21:44.259Z,2.17
2023-04-01T14:24:23.501Z,2.30
2023-04-01T14:27:29.395Z,2.23
2023-04-01T14:30:03.639Z,2.20
2023-04-01T14:32:37.021Z,2.30
2023-04-01T14:35:32.420Z,2.30
2023-04-01T14:38:08.987Z,2.10
2023-04-01T14:40:48.558Z,2.40
2023-04-01T14:43:24.029Z,1.97
2023-04-01T14:46:02.348Z,2.00
2023-04-01T14:48:33.260Z,2.33
2023-04-01T14:51:10.585Z,2.20
2023-04-01T14:53:42.683Z,1.80
2023-04-01T14:56:10.830Z,2.20
2023-04-01T14:58:45.088Z,2.20
2023-04-01T15:01:24.092Z,2.37
2023-04-01T15:03:55.874Z,2.40
2023-04-01T15:06:57.419Z,2.37
2023-04-01T15:09:28.558Z,2.30
2023-04-01T15:12:03.008Z,2.27
2023-04-01T15:14:39.519Z,2.43
2023-04-01T15:17:24.598Z,1.83
2023-04-01T15:20:01.839Z,2.50
2023-04-01T15:22:40.212Z,1.93
2023-04-01T15:25:22.041Z,2.00
2023-04-01T15:27:52.109Z,2.40
2023-04-01T15:30:34.882Z,2.20
2023-04-01T15:33:31.051Z,2.00
2023-04-01T15:36:02.367Z,2.07
2023-04-01T15:38:37.450Z,1.90
2023-04-01T15:41:10.400Z,2.30
2023-04-01T15:43:43.056Z,2.30
2023-04-01T15:46:16.575Z,2.10
2023-04-01T15:48:52.246Z,2.20
2023-04-01T15:51:26.067Z,1.93
2023-04-01T15:54:15.150Z,2.07
2023-04-01T15:56:52.906Z,1.73
2023-04-01T15:59:32.426Z,2.10
2023-04-01T16:02:02.402Z,2.23
2023-04-01T16:04:42.327Z,2.13
2023-04-01T16:07:18.020Z,2.13
2023-04-01T16:10:27.772Z,2.57
2023-04-01T16:13:00.923Z,2.17
2023-04-01T16:15:30.906Z,1.87
2023-04-01T16:18:29.382Z,2.20
2023-04-01T16:21:00.651Z,2.13
2023-04-01T16:23:32.165Z,2.50
2023-04-01T16:26:05.748Z,2.20
2023-04-01T16:31:56.371Z,2.57
2023-04-01T16:34:28.771Z,1.90
2023-04-01T16:37:32.155Z,2.13
2023-04-01T16:40:05.888Z,2.30
2023-04-01T16:42:38.265Z,2.10
2023-04-01T16:48:09.903Z,2.23
2023-04-01T16:51:32.309Z,2.30
2023-04-01T16:54:07.862Z,2.30
2023-04-01T16:56:45.455Z,2.30
2023-04-01T17:00:09.409Z,2.00
2023-04-01T17:02:59.459Z,2.00
2023-04-01T17:05:42.343Z,2.17
2023-04-01T17:08:41.254Z,2.13
2023-04-01T17:11:16.380Z,1.90
2023-04-01T17:13:49.146Z,2.10
2023-04-01T17:16:26.330Z,2.10
2023-04-01T17:19:03.404Z,2.00
2023-04-01T17:21:46.261Z,2.27
2023-04-01T17:24:24.270Z,2.20
2023-04-01T17:26:54.970Z,2.40
2023-04-01T17:29:28.792Z,2.50
2023-04-01T17:32:00.139Z,2.23
2023-04-01T17:34:50.863Z,2.37
2023-04-01T17:37:37.007Z,2.23
2023-04-01T17:40:28.729Z,2.20
2023-04-01T17:43:02.593Z,2.43
2023-04-01T17:45:32.606Z,2.20
2023-04-01T17:49:05.436Z,2.13
2023-04-01T17:51:55.527Z,2.20
2023-04-01T17:54:26.555Z,2.50
2023-04-01T17:57:06.036Z,2.07
2023-04-01T17:59:38.485Z,2.03
2023-04-01T18:02:16.031Z,2.37
2023-04-01T18:04:54.524Z,2.40
2023-04-01T18:07:50.541Z,2.40
2023-04-01T18:10:37.081Z,2.23
2023-04-01T18:16:50.727Z,2.27
2023-04-01T18:20:00.439Z,2.40
2023-04-01T18:23:17.526Z,2.37
2023-04-01T18:25:54.158Z,2.30
2023-04-01T18:29:02.137Z,2.30
2023-04-01T18:31:35.714Z,2.50
2023-04-01T18:34:17.281Z,2.50
2023-04-01T18:36:59.952Z,2.00
2023-04-01T18:39:36.324Z,2.30
2023-04-01T18:42:13.380Z,2.60
2023-04-01T18:44:47.900Z,2.30
2023-04-01T18:47:26.402Z,2.33
2023-04-01T18:49:56.384Z,2.50
2023-04-01T18:52:25.466Z,2.30
2023-04-01T18:55:16.755Z,2.53
2023-04-01T18:57:48.545Z,2.30
2023-04-01T19:00:17.526Z,2.70
2023-04-01T19:02:49.942Z,2.10
2023-04-01T19:05:19.187Z,2.70
2023-04-01T19:07:48.931Z,2.53
2023-04-01T19:10:28.555Z,2.57
2023-04-01T19:13:09.108Z,2.37
2023-04-01T19:15:41.766Z,2.30
2023-04-01T19:18:24.972Z,2.47
2023-04-01T19:20:58.473Z,2.13
2023-04-01T19:24:11.588Z,2.40
2023-04-01T19:26:42.680Z,2.33
2023-04-01T19:29:19.755Z,2.50
2023-04-01T19:31:55.072Z,2.53
2023-04-01T19:34:28.947Z,2.60
2023-04-01T19:36:58.351Z,2.60
2023-04-01T19:39:34.031Z,2.53
2023-04-01T19:42:07.513Z,3.13
2023-04-01T19:44:40.889Z,4.10
2023-04-01T19:47:14.133Z,4.07
2023-04-01T19:49:48.745Z,4.20
2023-04-01T19:52:18.843Z,4.23
2023-04-01T19:54:48.541Z,4.53
2023-04-01T19:57:23.095Z,4.63
2023-04-01T19:59:53.021Z,4.60
2023-04-01T20:02:40.525Z,4.60
2023-04-01T20:05:23.209Z,5.20
2023-04-01T20:07:53.463Z,5.60
2023-04-01T20:10:23.014Z,5.00
2023-04-01T20:12:56.830Z,5.20
2023-04-01T20:15:29.541Z,5.40
2023-04-01T20:17:57.482Z,5.90
2023-04-01T20:20:30.082Z,5.40
2023-04-01T20:23:26.204Z,5.57
2023-04-01T20:25:55.849Z,5.10
2023-04-01T20:28:27.793Z,5.40
2023-04-01T20:31:13.159Z,5.97
2023-04-01T20:34:10.110Z,5.80
2023-04-01T20:36:41.350Z,5.90
2023-04-01T20:39:36.811Z,5.43
2023-04-01T20:42:26.311Z,5.80
2023-04-01T20:44:58.066Z,6.43
2023-04-01T20:47:42.161Z,5.80
2023-04-01T20:50:13.770Z,5.70
2023-04-01T20:52:43.537Z,5.43
2023-04-01T20:55:41.250Z,6.00
2023-04-01T20:58:13.849Z,5.93
2023-04-01T21:00:48.413Z,5.53
2023-04-01T21:03:28.900Z,5.60
2023-04-01T21:06:24.920Z,5.43
2023-04-01T21:09:00.914Z,5.23
2023-04-01T21:11:33.284Z,5.67
2023-04-01T21:14:09.504Z,5.60
2023-04-01T21:16:44.174Z,5.73
2023-04-01T21:19:21.565Z,5.63
2023-04-01T21:22:00.278Z,5.50
2023-04-01T21:24:36.421Z,5.97
2023-04-01T21:27:07.030Z,5.27
2023-04-01T21:29:54.054Z,5.30
2023-04-01T21:32:31.395Z,5.50
2023-04-01T21:35:00.450Z,6.00
2023-04-01T21:37:51.805Z,5.73
2023-04-01T21:40:43.313Z,6.00
2023-04-01T21:43:18.620Z,5.73
2023-04-01T21:45:53.776Z,5.30
2023-04-01T21:48:46.270Z,6.07
2023-04-01T21:51:44.294Z,6.23
2023-04-01T21:54:46.919Z,6.63
2023-04-01T21:57:48.748Z,6.93
2023-04-01T22:00:23.216Z,7.20
2023-04-01T22:03:28.053Z,7.53
2023-04-01T22:06:02.492Z,6.80
2023-04-01T22:08:48.282Z,7.10
2023-04-01T22:11:23.680Z,6.43
2023-04-01T22:13:53.120Z,6.53
2023-04-01T22:16:26.488Z,6.00
2023-04-01T22:18:57.498Z,6.13
2023-04-01T22:21:30.202Z,6.03
2023-04-01T22:24:00.559Z,6.23
2023-04-01T22:26:30.418Z,5.60
2023-04-01T22:29:00.949Z,5.37
2023-04-01T22:31:31.021Z,6.07
2023-04-01T22:34:02.958Z,6.20
2023-04-01T22:36:35.360Z,5.90
2023-04-01T22:39:12.864Z,5.60
2023-04-01T22:41:48.004Z,5.33
2023-04-01T22:44:21.090Z,4.97
2023-04-01T22:46:54.644Z,5.10
2023-04-01T22:49:24.983Z,5.07
2023-04-01T22:51:56.170Z,5.03
2023-04-01T22:54:26.233Z,4.97
2023-04-01T22:56:55.782Z,4.57
2023-04-01T22:59:26.186Z,4.57
2023-04-01T23:01:57.988Z,4.97
2023-04-01T23:04:26.835Z,4.53
2023-04-01T23:06:57.728Z,4.80
2023-04-01T23:09:26.043Z,4.63
2023-04-01T23:11:55.138Z,4.60
2023-04-01T23:14:35.029Z,4.70
2023-04-01T23:17:07.830Z,4.30
2023-04-01T23:19:38.341Z,4.70
2023-04-01T23:22:11.277Z,4.50
2023-04-01T23:24:40.505Z,4.50
2023-04-01T23:27:10.281Z,4.50
2023-04-01T23:29:39.338Z,4.87
2023-04-01T23:32:07.221Z,4.07
2023-04-01T23:34:35.404Z,4.30
2023-04-01T23:37:04.717Z,4.63
2023-04-01T23:39:35.096Z,4.23
2023-04-01T23:42:04.733Z,4.57
2023-04-01T23:44:32.494Z,4.50
2023-04-01T23:47:00.948Z,4.33
2023-04-01T23:49:32.035Z,3.90
2023-04-01T23:52:01.354Z,4.30
2023-04-01T23:54:34.850Z,4.40
2023-04-01T23:57:06.736Z,4.67
2023-04-01T23:59:37.075Z,4.27
